Hovedside
METAR-TAF:

METAR-TAF

Lufthavner :

London Gatwick lufthavn

London-Gatwick, England

breddegrad: 51-09N, lengdegrad: 000-11W, høyde over havet: 62 m

Gjeldene værobservasjon

Denne rapporten ble laget for 32 minutter siden, klokken 13:20 UTC
Vind 7 kt fra Sør, skiftende mellom Sørøst og Sør-sørvest
Temperatur 26°C
Luftfuktighet 48%
Trykk 1020 hPa
Sikt 10 km eller mer
Få skyer i en høyde av 4800 ft

METAR: EGKK 181320Z 17007KT 140V210 9999 FEW048 26/14 Q1020

Tid: 14:52 (13:52 UTC)

Varsel

Denne rapporten ble laget for 2 timer og 55 minutter siden, klokken 10:57 UTC
Varsel gyldig fra 18. klokken 12 UTC til 19. klokken 18 UTC
Vind 6 kt fra Sør
Sikt 10 km eller mer
ingen skyer under 1500 m og ingen bygeskyer
Midlertidig
fra 18. klokken 23 UTC til 19. klokken 07 UTC
Sikt: 8000 m

TAF: EGKK 181057Z 1812/1918 17006KT CAVOK TEMPO 1823/1907 8000

Værobservasjoner og værvarsel for over 4000 flyplasser (METAR- og TAF-rapporter).

Tilgjengelige stasjoner er representert av de røde og gule prikkene på kartet.

Hold musepekeren over prikken for å se navnet på stasjonen.

Klikk så for å se værobservasjoner og -varsler.

For å forandre kartet kan du klikke på den grønne knappen med svart kryss for å zoome inn, på den grønne knappen med strek for å zoome ut, eller på de grønne pilene for å se tilstøtende kart.


METAR-TAF: